Alden, Michigan
Current Conditions -  °F | °C
As of 2:55 AM on Monday 24 Nov 2014 (Local Time) from KACB Reporting Station
Light Snow Light Snow  
Wind Chill: 43°   Ceiling: 1100
Heat Index: 43°   Visibility: 1.2mi
Dew Point: 42°   Wind: 0mph
Humidity: 95%   Direction: NA
Pressure: 29.03"   Gusts: NA
Location:  44.88°N, 85.28°W
Report Text: KACB 240755Z AUTO 00000KT 1 1/4SM -SN OVC011 06/06 A2903 RMK AO2 T00630056
Loading
Personal Weather Stations






























Interactive Weather Map New forecast layout! Learn more

10-Day Weather Forecast

Advertisements
Track Severe Weather on mobile